sensor_id;sensor_type;location;lat;lon;timestamp;temperature;humidity
74081;SHT31;62438;52.228;6.864;2022-08-11T00:01:58;19.08;63.30
74081;SHT31;62438;52.228;6.864;2022-08-11T00:04:03;19.04;63.12
74081;SHT31;62438;52.228;6.864;2022-08-11T00:06:05;18.97;63.72
74081;SHT31;62438;52.228;6.864;2022-08-11T00:08:05;18.98;62.91
74081;SHT31;62438;52.228;6.864;2022-08-11T00:10:12;19.10;63.26
74081;SHT31;62438;52.228;6.864;2022-08-11T00:12:15;19.04;62.79
74081;SHT31;62438;52.228;6.864;2022-08-11T00:14:23;18.94;63.80
74081;SHT31;62438;52.228;6.864;2022-08-11T00:16:24;18.93;63.51
74081;SHT31;62438;52.228;6.864;2022-08-11T00:18:26;18.94;63.33
74081;SHT31;62438;52.228;6.864;2022-08-11T00:20:35;19.11;63.54
74081;SHT31;62438;52.228;6.864;2022-08-11T00:22:41;18.93;64.09
74081;SHT31;62438;52.228;6.864;2022-08-11T00:24:42;18.81;64.30
74081;SHT31;62438;52.228;6.864;2022-08-11T00:26:51;18.80;64.24
74081;SHT31;62438;52.228;6.864;2022-08-11T00:28:52;18.73;64.91
74081;SHT31;62438;52.228;6.864;2022-08-11T00:30:54;18.73;64.57
74081;SHT31;62438;52.228;6.864;2022-08-11T00:32:56;18.63;65.23
74081;SHT31;62438;52.228;6.864;2022-08-11T00:34:59;18.76;64.30
74081;SHT31;62438;52.228;6.864;2022-08-11T00:37:03;18.66;64.86
74081;SHT31;62438;52.228;6.864;2022-08-11T00:39:05;18.50;65.45
74081;SHT31;62438;52.228;6.864;2022-08-11T00:45:59;18.06;66.99
74081;SHT31;62438;52.228;6.864;2022-08-11T00:48:12;18.08;67.02
74081;SHT31;62438;52.228;6.864;2022-08-11T00:50:26;17.95;67.56
74081;SHT31;62438;52.228;6.864;2022-08-11T00:53:00;17.85;67.91
74081;SHT31;62438;52.228;6.864;2022-08-11T00:55:30;17.77;68.44
74081;SHT31;62438;52.228;6.864;2022-08-11T01:00:13;17.55;69.31
74081;SHT31;62438;52.228;6.864;2022-08-11T01:05:09;17.30;70.64
74081;SHT31;62438;52.228;6.864;2022-08-11T01:29:27;16.74;73.12
74081;SHT31;62438;52.228;6.864;2022-08-11T01:32:25;16.67;73.31
74081;SHT31;62438;52.228;6.864;2022-08-11T01:45:54;16.45;74.39
74081;SHT31;62438;52.228;6.864;2022-08-11T01:53:02;16.50;74.24
74081;SHT31;62438;52.228;6.864;2022-08-11T01:57:42;16.38;74.99
74081;SHT31;62438;52.228;6.864;2022-08-11T01:59:46;16.31;75.04
74081;SHT31;62438;52.228;6.864;2022-08-11T02:02:00;16.41;74.70
74081;SHT31;62438;52.228;6.864;2022-08-11T02:06:25;16.54;74.49
74081;SHT31;62438;52.228;6.864;2022-08-11T02:08:56;16.44;74.93
74081;SHT31;62438;52.228;6.864;2022-08-11T02:11:26;16.44;74.97
74081;SHT31;62438;52.228;6.864;2022-08-11T02:13:58;16.54;74.55
74081;SHT31;62438;52.228;6.864;2022-08-11T02:16:16;16.43;74.92
74081;SHT31;62438;52.228;6.864;2022-08-11T02:18:22;16.43;75.12
74081;SHT31;62438;52.228;6.864;2022-08-11T02:20:33;16.43;74.83
74081;SHT31;62438;52.228;6.864;2022-08-11T02:23:12;16.31;75.31
74081;SHT31;62438;52.228;6.864;2022-08-11T02:25:58;16.14;75.91
74081;SHT31;62438;52.228;6.864;2022-08-11T02:28:02;16.12;76.11
74081;SHT31;62438;52.228;6.864;2022-08-11T02:30:07;16.07;76.35
74081;SHT31;62438;52.228;6.864;2022-08-11T02:32:17;16.02;76.51
74081;SHT31;62438;52.228;6.864;2022-08-11T02:34:58;15.92;76.89
74081;SHT31;62438;52.228;6.864;2022-08-11T02:39:17;15.86;77.27
74081;SHT31;62438;52.228;6.864;2022-08-11T02:46:35;15.86;77.70
74081;SHT31;62438;52.228;6.864;2022-08-11T02:48:59;15.82;77.76
74081;SHT31;62438;52.228;6.864;2022-08-11T02:54:09;15.78;77.96
74081;SHT31;62438;52.228;6.864;2022-08-11T02:56:30;15.75;78.26
74081;SHT31;62438;52.228;6.864;2022-08-11T03:01:27;15.81;78.14
74081;SHT31;62438;52.228;6.864;2022-08-11T03:03:48;15.75;78.47
74081;SHT31;62438;52.228;6.864;2022-08-11T03:06:13;15.73;78.44
74081;SHT31;62438;52.228;6.864;2022-08-11T03:10:31;15.82;78.05
74081;SHT31;62438;52.228;6.864;2022-08-11T03:12:50;15.76;78.17
74081;SHT31;62438;52.228;6.864;2022-08-11T03:15:16;15.79;78.09
74081;SHT31;62438;52.228;6.864;2022-08-11T03:17:42;15.73;78.41
74081;SHT31;62438;52.228;6.864;2022-08-11T03:22:28;15.81;78.03
74081;SHT31;62438;52.228;6.864;2022-08-11T03:24:42;15.76;78.19
74081;SHT31;62438;52.228;6.864;2022-08-11T03:27:08;15.82;77.99
74081;SHT31;62438;52.228;6.864;2022-08-11T03:29:29;15.73;78.40
74081;SHT31;62438;52.228;6.864;2022-08-11T03:33:51;15.66;78.34
74081;SHT31;62438;52.228;6.864;2022-08-11T03:38:25;15.55;78.71
74081;SHT31;62438;52.228;6.864;2022-08-11T03:43:36;15.52;79.00
74081;SHT31;62438;52.228;6.864;2022-08-11T03:46:07;15.47;80.57
74081;SHT31;62438;52.228;6.864;2022-08-11T03:48:48;15.38;79.64
74081;SHT31;62438;52.228;6.864;2022-08-11T03:53:01;15.39;79.69
74081;SHT31;62438;52.228;6.864;2022-08-11T03:55:18;15.35;80.07
74081;SHT31;62438;52.228;6.864;2022-08-11T04:12:22;15.18;80.80
74081;SHT31;62438;52.228;6.864;2022-08-11T04:17:13;15.12;81.23
74081;SHT31;62438;52.228;6.864;2022-08-11T04:22:21;15.08;81.26
74081;SHT31;62438;52.228;6.864;2022-08-11T04:25:19;15.07;81.07
74081;SHT31;62438;52.228;6.864;2022-08-11T04:27:17;15.11;80.87
74081;SHT31;62438;52.228;6.864;2022-08-11T04:34:35;15.14;81.85
74081;SHT31;62438;52.228;6.864;2022-08-11T04:50:46;15.20;81.62
74081;SHT31;62438;52.228;6.864;2022-08-11T04:53:40;15.26;82.14
74081;SHT31;62438;52.228;6.864;2022-08-11T04:56:05;15.34;81.59
74081;SHT31;62438;52.228;6.864;2022-08-11T05:09:06;15.58;80.11
74081;SHT31;62438;52.228;6.864;2022-08-11T05:16:06;15.86;77.93
74081;SHT31;62438;52.228;6.864;2022-08-11T05:18:28;15.89;78.09
74081;SHT31;62438;52.228;6.864;2022-08-11T05:20:54;15.95;78.61
74081;SHT31;62438;52.228;6.864;2022-08-11T05:23:15;16.06;77.14
74081;SHT31;62438;52.228;6.864;2022-08-11T05:25:43;16.18;76.39
74081;SHT31;62438;52.228;6.864;2022-08-11T05:28:08;16.24;77.25
74081;SHT31;62438;52.228;6.864;2022-08-11T05:30:28;16.44;75.77
74081;SHT31;62438;52.228;6.864;2022-08-11T05:33:04;16.45;75.74
74081;SHT31;62438;52.228;6.864;2022-08-11T05:35:41;16.81;73.33
74081;SHT31;62438;52.228;6.864;2022-08-11T05:37:44;16.95;72.53
74081;SHT31;62438;52.228;6.864;2022-08-11T05:40:12;17.06;73.10
74081;SHT31;62438;52.228;6.864;2022-08-11T05:42:33;17.08;74.86
74081;SHT31;62438;52.228;6.864;2022-08-11T05:45:00;17.22;71.73
74081;SHT31;62438;52.228;6.864;2022-08-11T05:47:24;17.51;70.03
74081;SHT31;62438;52.228;6.864;2022-08-11T05:49:48;17.73;68.97
74081;SHT31;62438;52.228;6.864;2022-08-11T05:52:14;17.94;69.02
74081;SHT31;62438;52.228;6.864;2022-08-11T05:54:34;18.11;66.84
74081;SHT31;62438;52.228;6.864;2022-08-11T05:56:56;18.19;67.95
74081;SHT31;62438;52.228;6.864;2022-08-11T05:58:58;18.28;67.80
74081;SHT31;62438;52.228;6.864;2022-08-11T06:00:59;18.59;65.48
74081;SHT31;62438;52.228;6.864;2022-08-11T06:03:01;18.64;66.21
74081;SHT31;62438;52.228;6.864;2022-08-11T06:05:06;18.94;62.73
74081;SHT31;62438;52.228;6.864;2022-08-11T06:07:09;18.97;64.68
74081;SHT31;62438;52.228;6.864;2022-08-11T06:09:10;19.12;63.15
74081;SHT31;62438;52.228;6.864;2022-08-11T06:11:15;19.11;64.45
74081;SHT31;62438;52.228;6.864;2022-08-11T06:13:17;19.28;64.29
74081;SHT31;62438;52.228;6.864;2022-08-11T06:15:18;19.36;63.16
74081;SHT31;62438;52.228;6.864;2022-08-11T06:17:24;19.52;61.61
74081;SHT31;62438;52.228;6.864;2022-08-11T06:19:34;19.62;60.73
74081;SHT31;62438;52.228;6.864;2022-08-11T06:21:35;19.82;60.14
74081;SHT31;62438;52.228;6.864;2022-08-11T06:23:37;19.89;59.90
74081;SHT31;62438;52.228;6.864;2022-08-11T06:25:37;19.92;60.38
74081;SHT31;62438;52.228;6.864;2022-08-11T06:27:40;20.09;60.73
74081;SHT31;62438;52.228;6.864;2022-08-11T06:29:48;20.24;58.93
74081;SHT31;62438;52.228;6.864;2022-08-11T06:31:51;20.33;58.05
74081;SHT31;62438;52.228;6.864;2022-08-11T06:34:19;20.44;59.48
74081;SHT31;62438;52.228;6.864;2022-08-11T06:39:21;20.76;58.40
74081;SHT31;62438;52.228;6.864;2022-08-11T06:46:14;21.02;57.75
74081;SHT31;62438;52.228;6.864;2022-08-11T06:48:19;21.16;57.24
74081;SHT31;62438;52.228;6.864;2022-08-11T06:50:21;21.34;55.74
74081;SHT31;62438;52.228;6.864;2022-08-11T06:52:44;21.39;54.62
74081;SHT31;62438;52.228;6.864;2022-08-11T06:54:52;21.47;56.10
74081;SHT31;62438;52.228;6.864;2022-08-11T06:57:07;21.61;54.23
74081;SHT31;62438;52.228;6.864;2022-08-11T06:59:31;21.70;54.39
74081;SHT31;62438;52.228;6.864;2022-08-11T07:02:14;21.84;52.19
74081;SHT31;62438;52.228;6.864;2022-08-11T07:04:42;21.92;51.93
74081;SHT31;62438;52.228;6.864;2022-08-11T07:07:00;22.13;51.52
74081;SHT31;62438;52.228;6.864;2022-08-11T07:12:17;22.23;51.66
74081;SHT31;62438;52.228;6.864;2022-08-11T07:14:46;22.39;50.68
74081;SHT31;62438;52.228;6.864;2022-08-11T07:17:10;22.56;50.68
74081;SHT31;62438;52.228;6.864;2022-08-11T07:19:14;22.64;50.57
74081;SHT31;62438;52.228;6.864;2022-08-11T07:21:38;22.81;50.05
74081;SHT31;62438;52.228;6.864;2022-08-11T07:24:02;22.84;50.08
74081;SHT31;62438;52.228;6.864;2022-08-11T07:26:25;23.00;50.09
74081;SHT31;62438;52.228;6.864;2022-08-11T07:28:46;23.03;50.18
74081;SHT31;62438;52.228;6.864;2022-08-11T07:31:03;23.24;49.67
74081;SHT31;62438;52.228;6.864;2022-08-11T07:33:06;23.31;47.60
74081;SHT31;62438;52.228;6.864;2022-08-11T07:35:11;23.34;48.15
74081;SHT31;62438;52.228;6.864;2022-08-11T07:37:16;23.39;48.61
74081;SHT31;62438;52.228;6.864;2022-08-11T07:39:23;23.45;48.38
74081;SHT31;62438;52.228;6.864;2022-08-11T07:41:25;23.55;49.44
74081;SHT31;62438;52.228;6.864;2022-08-11T07:43:27;23.63;49.02
74081;SHT31;62438;52.228;6.864;2022-08-11T07:45:28;23.83;47.76
74081;SHT31;62438;52.228;6.864;2022-08-11T07:47:49;23.94;47.47
74081;SHT31;62438;52.228;6.864;2022-08-11T07:50:11;24.07;48.84
74081;SHT31;62438;52.228;6.864;2022-08-11T07:52:33;24.21;48.08
74081;SHT31;62438;52.228;6.864;2022-08-11T07:54:37;24.38;47.18
74081;SHT31;62438;52.228;6.864;2022-08-11T07:56:38;24.38;46.09
74081;SHT31;62438;52.228;6.864;2022-08-11T07:58:39;24.38;47.39
74081;SHT31;62438;52.228;6.864;2022-08-11T08:00:58;24.52;46.21
74081;SHT31;62438;52.228;6.864;2022-08-11T08:03:18;24.64;46.99
74081;SHT31;62438;52.228;6.864;2022-08-11T08:05:37;24.71;46.37
74081;SHT31;62438;52.228;6.864;2022-08-11T08:07:56;24.81;45.90
74081;SHT31;62438;52.228;6.864;2022-08-11T08:10:17;25.13;43.63
74081;SHT31;62438;52.228;6.864;2022-08-11T08:12:36;25.22;44.22
74081;SHT31;62438;52.228;6.864;2022-08-11T08:14:57;25.34;42.83
74081;SHT31;62438;52.228;6.864;2022-08-11T08:17:18;25.43;42.97
74081;SHT31;62438;52.228;6.864;2022-08-11T08:19:38;25.44;43.17
74081;SHT31;62438;52.228;6.864;2022-08-11T08:21:41;25.47;44.25
74081;SHT31;62438;52.228;6.864;2022-08-11T08:23:45;25.73;41.25
74081;SHT31;62438;52.228;6.864;2022-08-11T08:25:46;25.75;41.02
74081;SHT31;62438;52.228;6.864;2022-08-11T08:27:48;25.84;42.79
74081;SHT31;62438;52.228;6.864;2022-08-11T08:29:49;25.88;41.60
74081;SHT31;62438;52.228;6.864;2022-08-11T08:32:09;26.06;40.87
74081;SHT31;62438;52.228;6.864;2022-08-11T08:34:11;25.95;41.85
74081;SHT31;62438;52.228;6.864;2022-08-11T08:36:13;26.04;41.76
74081;SHT31;62438;52.228;6.864;2022-08-11T08:38:19;26.24;41.22
74081;SHT31;62438;52.228;6.864;2022-08-11T08:40:20;26.50;40.12
74081;SHT31;62438;52.228;6.864;2022-08-11T08:42:25;26.82;38.79
74081;SHT31;62438;52.228;6.864;2022-08-11T08:44:26;26.67;38.60
74081;SHT31;62438;52.228;6.864;2022-08-11T08:46:34;26.55;39.13
74081;SHT31;62438;52.228;6.864;2022-08-11T08:48:36;26.80;40.24
74081;SHT31;62438;52.228;6.864;2022-08-11T08:50:43;26.76;39.93
74081;SHT31;62438;52.228;6.864;2022-08-11T08:53:03;26.84;39.38
74081;SHT31;62438;52.228;6.864;2022-08-11T08:55:06;27.00;38.18
74081;SHT31;62438;52.228;6.864;2022-08-11T08:57:08;27.16;38.75
74081;SHT31;62438;52.228;6.864;2022-08-11T08:59:10;27.30;38.14
74081;SHT31;62438;52.228;6.864;2022-08-11T09:01:13;27.18;38.65
74081;SHT31;62438;52.228;6.864;2022-08-11T09:03:14;27.28;39.45
74081;SHT31;62438;52.228;6.864;2022-08-11T09:05:17;27.34;39.44
74081;SHT31;62438;52.228;6.864;2022-08-11T09:07:21;27.32;36.77
74081;SHT31;62438;52.228;6.864;2022-08-11T09:09:23;27.61;37.60
74081;SHT31;62438;52.228;6.864;2022-08-11T09:11:24;27.66;36.68
74081;SHT31;62438;52.228;6.864;2022-08-11T09:13:43;27.73;36.83
74081;SHT31;62438;52.228;6.864;2022-08-11T09:15:45;27.73;35.91
74081;SHT31;62438;52.228;6.864;2022-08-11T09:17:54;27.96;35.06
74081;SHT31;62438;52.228;6.864;2022-08-11T09:20:23;28.20;35.85
74081;SHT31;62438;52.228;6.864;2022-08-11T09:22:29;28.34;34.55
74081;SHT31;62438;52.228;6.864;2022-08-11T09:24:50;28.40;34.84
74081;SHT31;62438;52.228;6.864;2022-08-11T09:27:09;28.38;36.93
74081;SHT31;62438;52.228;6.864;2022-08-11T09:29:10;28.31;33.09
74081;SHT31;62438;52.228;6.864;2022-08-11T09:31:12;28.24;34.23
74081;SHT31;62438;52.228;6.864;2022-08-11T09:33:15;28.28;34.52
74081;SHT31;62438;52.228;6.864;2022-08-11T09:35:16;28.43;33.28
74081;SHT31;62438;52.228;6.864;2022-08-11T09:37:19;28.45;32.41
74081;SHT31;62438;52.228;6.864;2022-08-11T09:39:39;28.43;32.80
74081;SHT31;62438;52.228;6.864;2022-08-11T09:42:01;28.57;33.50
74081;SHT31;62438;52.228;6.864;2022-08-11T09:44:02;28.65;33.20
74081;SHT31;62438;52.228;6.864;2022-08-11T09:46:27;28.86;34.81
74081;SHT31;62438;52.228;6.864;2022-08-11T09:48:35;29.03;34.00
74081;SHT31;62438;52.228;6.864;2022-08-11T09:50:37;29.07;33.87
74081;SHT31;62438;52.228;6.864;2022-08-11T09:52:40;28.62;31.09
74081;SHT31;62438;52.228;6.864;2022-08-11T09:54:42;28.67;32.85
74081;SHT31;62438;52.228;6.864;2022-08-11T09:56:44;28.88;32.15
74081;SHT31;62438;52.228;6.864;2022-08-11T09:59:03;28.76;32.15
74081;SHT31;62438;52.228;6.864;2022-08-11T10:01:05;29.10;30.71
74081;SHT31;62438;52.228;6.864;2022-08-11T10:03:10;29.26;33.83
74081;SHT31;62438;52.228;6.864;2022-08-11T10:05:14;29.50;32.39
74081;SHT31;62438;52.228;6.864;2022-08-11T10:07:34;29.58;30.52
74081;SHT31;62438;52.228;6.864;2022-08-11T10:09:40;29.50;31.13
74081;SHT31;62438;52.228;6.864;2022-08-11T10:11:41;29.73;30.08
74081;SHT31;62438;52.228;6.864;2022-08-11T10:13:44;29.92;31.15
74081;SHT31;62438;52.228;6.864;2022-08-11T10:16:07;29.97;31.07
74081;SHT31;62438;52.228;6.864;2022-08-11T10:18:13;30.09;29.34
74081;SHT31;62438;52.228;6.864;2022-08-11T10:20:36;30.19;28.53
74081;SHT31;62438;52.228;6.864;2022-08-11T10:22:39;30.08;30.12
74081;SHT31;62438;52.228;6.864;2022-08-11T10:24:58;30.23;29.26
74081;SHT31;62438;52.228;6.864;2022-08-11T10:27:17;30.31;29.66
74081;SHT31;62438;52.228;6.864;2022-08-11T10:29:18;30.53;27.82
74081;SHT31;62438;52.228;6.864;2022-08-11T10:31:37;30.06;28.29
74081;SHT31;62438;52.228;6.864;2022-08-11T10:33:57;30.43;28.20
74081;SHT31;62438;52.228;6.864;2022-08-11T10:36:01;30.53;29.02
74081;SHT31;62438;52.228;6.864;2022-08-11T10:38:02;30.28;28.38
74081;SHT31;62438;52.228;6.864;2022-08-11T10:40:04;30.52;29.94
74081;SHT31;62438;52.228;6.864;2022-08-11T10:42:08;31.00;28.62
74081;SHT31;62438;52.228;6.864;2022-08-11T10:44:28;31.15;28.08
74081;SHT31;62438;52.228;6.864;2022-08-11T10:46:33;31.00;28.17
74081;SHT31;62438;52.228;6.864;2022-08-11T10:48:55;31.25;28.00
74081;SHT31;62438;52.228;6.864;2022-08-11T10:50:57;31.43;28.09
74081;SHT31;62438;52.228;6.864;2022-08-11T10:53:13;31.55;29.17
74081;SHT31;62438;52.228;6.864;2022-08-11T10:55:34;31.55;27.09
74081;SHT31;62438;52.228;6.864;2022-08-11T10:57:54;31.70;27.96
74081;SHT31;62438;52.228;6.864;2022-08-11T11:00:13;32.05;27.89
74081;SHT31;62438;52.228;6.864;2022-08-11T11:02:15;31.72;26.45
74081;SHT31;62438;52.228;6.864;2022-08-11T11:04:23;32.02;27.12
74081;SHT31;62438;52.228;6.864;2022-08-11T11:08:45;31.76;25.74
74081;SHT31;62438;52.228;6.864;2022-08-11T11:10:53;31.73;26.13
74081;SHT31;62438;52.228;6.864;2022-08-11T11:12:55;31.93;25.66
74081;SHT31;62438;52.228;6.864;2022-08-11T11:15:18;32.09;26.07
74081;SHT31;62438;52.228;6.864;2022-08-11T11:17:42;32.20;27.38
74081;SHT31;62438;52.228;6.864;2022-08-11T11:19:57;32.06;27.73
74081;SHT31;62438;52.228;6.864;2022-08-11T11:21:59;32.65;25.43
74081;SHT31;62438;52.228;6.864;2022-08-11T11:26:52;32.27;24.08
74081;SHT31;62438;52.228;6.864;2022-08-11T11:29:30;32.51;25.03
74081;SHT31;62438;52.228;6.864;2022-08-11T11:34:23;32.21;25.10
74081;SHT31;62438;52.228;6.864;2022-08-11T11:39:07;32.48;26.72
74081;SHT31;62438;52.228;6.864;2022-08-11T11:41:08;32.57;25.46
74081;SHT31;62438;52.228;6.864;2022-08-11T11:43:24;33.03;24.17
74081;SHT31;62438;52.228;6.864;2022-08-11T11:45:25;33.09;24.82
74081;SHT31;62438;52.228;6.864;2022-08-11T11:47:26;32.88;26.37
74081;SHT31;62438;52.228;6.864;2022-08-11T11:49:28;32.88;25.52
74081;SHT31;62438;52.228;6.864;2022-08-11T11:51:29;32.98;24.87
74081;SHT31;62438;52.228;6.864;2022-08-11T11:53:30;33.02;25.02
74081;SHT31;62438;52.228;6.864;2022-08-11T11:55:31;33.03;25.36
74081;SHT31;62438;52.228;6.864;2022-08-11T11:57:32;32.40;24.83
74081;SHT31;62438;52.228;6.864;2022-08-11T11:59:52;32.96;27.26
74081;SHT31;62438;52.228;6.864;2022-08-11T12:02:13;33.03;24.98
74081;SHT31;62438;52.228;6.864;2022-08-11T12:04:16;33.36;26.27
74081;SHT31;62438;52.228;6.864;2022-08-11T12:06:21;33.11;24.38
74081;SHT31;62438;52.228;6.864;2022-08-11T12:08:23;33.19;25.90
74081;SHT31;62438;52.228;6.864;2022-08-11T12:10:24;33.57;24.48
74081;SHT31;62438;52.228;6.864;2022-08-11T12:12:25;33.77;23.70
74081;SHT31;62438;52.228;6.864;2022-08-11T12:14:45;33.26;24.90
74081;SHT31;62438;52.228;6.864;2022-08-11T12:16:47;33.52;25.20
74081;SHT31;62438;52.228;6.864;2022-08-11T12:18:50;33.49;23.13
74081;SHT31;62438;52.228;6.864;2022-08-11T12:20:51;33.45;24.72
74081;SHT31;62438;52.228;6.864;2022-08-11T12:22:54;33.97;23.74
74081;SHT31;62438;52.228;6.864;2022-08-11T12:25:13;33.81;24.65
74081;SHT31;62438;52.228;6.864;2022-08-11T12:27:32;33.61;25.00
74081;SHT31;62438;52.228;6.864;2022-08-11T12:29:33;33.43;23.82
74081;SHT31;62438;52.228;6.864;2022-08-11T12:31:35;33.30;23.37
74081;SHT31;62438;52.228;6.864;2022-08-11T12:33:38;33.90;23.19
74081;SHT31;62438;52.228;6.864;2022-08-11T12:35:41;33.74;23.41
74081;SHT31;62438;52.228;6.864;2022-08-11T12:37:44;33.54;24.72
74081;SHT31;62438;52.228;6.864;2022-08-11T12:39:49;33.77;22.90
74081;SHT31;62438;52.228;6.864;2022-08-11T12:42:10;33.59;23.09
74081;SHT31;62438;52.228;6.864;2022-08-11T12:44:30;33.27;24.83
74081;SHT31;62438;52.228;6.864;2022-08-11T12:46:49;33.78;23.02
74081;SHT31;62438;52.228;6.864;2022-08-11T12:48:55;33.89;23.33
74081;SHT31;62438;52.228;6.864;2022-08-11T12:51:19;33.74;22.57
74081;SHT31;62438;52.228;6.864;2022-08-11T12:53:44;33.09;22.14
74081;SHT31;62438;52.228;6.864;2022-08-11T12:55:45;33.11;22.42
74081;SHT31;62438;52.228;6.864;2022-08-11T12:58:08;33.60;23.37
74081;SHT31;62438;52.228;6.864;2022-08-11T13:00:17;33.57;23.97
74081;SHT31;62438;52.228;6.864;2022-08-11T13:02:39;33.66;24.15
74081;SHT31;62438;52.228;6.864;2022-08-11T13:05:00;33.73;22.14
74081;SHT31;62438;52.228;6.864;2022-08-11T13:07:02;33.63;23.47
74081;SHT31;62438;52.228;6.864;2022-08-11T13:09:04;33.29;23.60
74081;SHT31;62438;52.228;6.864;2022-08-11T13:11:05;33.32;23.72
74081;SHT31;62438;52.228;6.864;2022-08-11T13:13:25;33.30;23.93
74081;SHT31;62438;52.228;6.864;2022-08-11T13:15:26;33.21;21.86
74081;SHT31;62438;52.228;6.864;2022-08-11T13:17:27;33.36;23.73
74081;SHT31;62438;52.228;6.864;2022-08-11T13:19:29;33.71;23.03
74081;SHT31;62438;52.228;6.864;2022-08-11T13:21:30;33.52;22.88
74081;SHT31;62438;52.228;6.864;2022-08-11T13:23:31;33.66;22.63
74081;SHT31;62438;52.228;6.864;2022-08-11T13:25:31;33.63;22.62
74081;SHT31;62438;52.228;6.864;2022-08-11T13:27:33;33.29;23.46
74081;SHT31;62438;52.228;6.864;2022-08-11T13:29:34;33.96;21.47
74081;SHT31;62438;52.228;6.864;2022-08-11T13:31:36;33.84;23.77
74081;SHT31;62438;52.228;6.864;2022-08-11T13:33:40;33.81;24.83
74081;SHT31;62438;52.228;6.864;2022-08-11T13:35:44;33.47;22.50
74081;SHT31;62438;52.228;6.864;2022-08-11T13:37:46;33.53;24.76
74081;SHT31;62438;52.228;6.864;2022-08-11T13:39:48;33.43;21.84
74081;SHT31;62438;52.228;6.864;2022-08-11T13:41:48;33.39;21.97
74081;SHT31;62438;52.228;6.864;2022-08-11T13:43:50;33.54;22.87
74081;SHT31;62438;52.228;6.864;2022-08-11T13:45:52;33.64;22.20
74081;SHT31;62438;52.228;6.864;2022-08-11T13:48:14;33.80;25.13
74081;SHT31;62438;52.228;6.864;2022-08-11T13:50:15;33.52;23.06
74081;SHT31;62438;52.228;6.864;2022-08-11T13:52:16;33.70;21.65
74081;SHT31;62438;52.228;6.864;2022-08-11T13:54:21;33.74;23.16
74081;SHT31;62438;52.228;6.864;2022-08-11T13:56:23;34.19;21.43
74081;SHT31;62438;52.228;6.864;2022-08-11T13:58:25;33.82;22.95
74081;SHT31;62438;52.228;6.864;2022-08-11T14:00:27;34.02;23.53
74081;SHT31;62438;52.228;6.864;2022-08-11T14:02:30;33.49;23.49
74081;SHT31;62438;52.228;6.864;2022-08-11T14:04:34;33.08;24.10
74081;SHT31;62438;52.228;6.864;2022-08-11T14:06:50;33.13;24.00
74081;SHT31;62438;52.228;6.864;2022-08-11T14:08:51;33.05;22.97
74081;SHT31;62438;52.228;6.864;2022-08-11T14:10:57;32.72;25.13
74081;SHT31;62438;52.228;6.864;2022-08-11T14:13:17;32.50;23.76
74081;SHT31;62438;52.228;6.864;2022-08-11T14:15:40;32.27;24.88
74081;SHT31;62438;52.228;6.864;2022-08-11T14:17:41;32.03;24.28
74081;SHT31;62438;52.228;6.864;2022-08-11T14:19:43;31.85;25.16
74081;SHT31;62438;52.228;6.864;2022-08-11T14:21:46;31.39;25.64
74081;SHT31;62438;52.228;6.864;2022-08-11T14:24:07;31.61;26.80
74081;SHT31;62438;52.228;6.864;2022-08-11T14:26:11;31.80;23.77
74081;SHT31;62438;52.228;6.864;2022-08-11T14:28:22;31.76;24.31
74081;SHT31;62438;52.228;6.864;2022-08-11T14:30:23;31.69;25.38
74081;SHT31;62438;52.228;6.864;2022-08-11T14:32:44;31.65;25.31
74081;SHT31;62438;52.228;6.864;2022-08-11T14:34:47;31.76;25.10
74081;SHT31;62438;52.228;6.864;2022-08-11T14:36:51;31.63;23.76
74081;SHT31;62438;52.228;6.864;2022-08-11T14:38:52;31.39;24.16
74081;SHT31;62438;52.228;6.864;2022-08-11T14:40:53;31.46;24.62
74081;SHT31;62438;52.228;6.864;2022-08-11T14:43:12;31.46;24.18
74081;SHT31;62438;52.228;6.864;2022-08-11T14:45:31;31.37;23.58
74081;SHT31;62438;52.228;6.864;2022-08-11T14:47:56;31.52;23.30
74081;SHT31;62438;52.228;6.864;2022-08-11T14:49:57;31.24;25.50
74081;SHT31;62438;52.228;6.864;2022-08-11T14:51:58;31.28;25.52
74081;SHT31;62438;52.228;6.864;2022-08-11T14:53:59;31.52;25.98
74081;SHT31;62438;52.228;6.864;2022-08-11T14:56:18;31.52;24.25
74081;SHT31;62438;52.228;6.864;2022-08-11T14:58:37;31.22;24.77
74081;SHT31;62438;52.228;6.864;2022-08-11T15:00:40;31.20;24.40
74081;SHT31;62438;52.228;6.864;2022-08-11T15:02:41;31.14;26.18
74081;SHT31;62438;52.228;6.864;2022-08-11T15:05:03;31.25;23.99
74081;SHT31;62438;52.228;6.864;2022-08-11T15:07:04;31.32;24.50
74081;SHT31;62438;52.228;6.864;2022-08-11T15:09:05;31.27;24.89
74081;SHT31;62438;52.228;6.864;2022-08-11T15:11:07;31.37;25.55
74081;SHT31;62438;52.228;6.864;2022-08-11T15:13:27;31.24;25.21
74081;SHT31;62438;52.228;6.864;2022-08-11T15:15:28;31.30;25.82
74081;SHT31;62438;52.228;6.864;2022-08-11T15:17:50;31.24;24.35
74081;SHT31;62438;52.228;6.864;2022-08-11T15:19:52;31.25;24.51
74081;SHT31;62438;52.228;6.864;2022-08-11T15:22:11;31.12;25.97
74081;SHT31;62438;52.228;6.864;2022-08-11T15:24:31;31.12;26.08
74081;SHT31;62438;52.228;6.864;2022-08-11T15:26:39;30.87;26.62
74081;SHT31;62438;52.228;6.864;2022-08-11T15:28:59;31.07;26.02
74081;SHT31;62438;52.228;6.864;2022-08-11T15:31:19;30.97;25.96
74081;SHT31;62438;52.228;6.864;2022-08-11T15:33:42;31.04;26.39
74081;SHT31;62438;52.228;6.864;2022-08-11T15:36:04;30.95;25.73
74081;SHT31;62438;52.228;6.864;2022-08-11T15:38:25;30.90;26.89
74081;SHT31;62438;52.228;6.864;2022-08-11T15:40:30;30.88;26.51
74081;SHT31;62438;52.228;6.864;2022-08-11T15:42:56;30.91;25.26
74081;SHT31;62438;52.228;6.864;2022-08-11T15:45:21;30.95;26.28
74081;SHT31;62438;52.228;6.864;2022-08-11T15:48:05;30.76;25.41
74081;SHT31;62438;52.228;6.864;2022-08-11T15:50:04;30.74;26.25
74081;SHT31;62438;52.228;6.864;2022-08-11T15:52:08;30.76;25.99
74081;SHT31;62438;52.228;6.864;2022-08-11T15:54:13;30.70;26.87
74081;SHT31;62438;52.228;6.864;2022-08-11T15:56:15;30.63;27.14
74081;SHT31;62438;52.228;6.864;2022-08-11T15:58:17;30.56;26.57
74081;SHT31;62438;52.228;6.864;2022-08-11T16:00:38;30.47;26.75
74081;SHT31;62438;52.228;6.864;2022-08-11T16:02:58;30.59;27.10
74081;SHT31;62438;52.228;6.864;2022-08-11T16:05:19;30.51;27.83
74081;SHT31;62438;52.228;6.864;2022-08-11T16:07:25;30.56;26.98
74081;SHT31;62438;52.228;6.864;2022-08-11T16:09:39;30.47;26.74
74081;SHT31;62438;52.228;6.864;2022-08-11T16:11:41;30.49;26.80
74081;SHT31;62438;52.228;6.864;2022-08-11T16:13:43;30.51;27.51
74081;SHT31;62438;52.228;6.864;2022-08-11T16:15:54;30.49;25.87
74081;SHT31;62438;52.228;6.864;2022-08-11T16:18:15;30.36;25.72
74081;SHT31;62438;52.228;6.864;2022-08-11T16:20:22;30.35;27.14
74081;SHT31;62438;52.228;6.864;2022-08-11T16:22:27;30.40;26.91
74081;SHT31;62438;52.228;6.864;2022-08-11T16:24:41;30.36;26.43
74081;SHT31;62438;52.228;6.864;2022-08-11T16:26:48;30.46;25.32